Ontonagon, Michigan
Current Conditions -  °F | °C
As of 12:53 AM on Monday 20 Oct 2014 (Local Time) from KCMX Reporting Station
Overcast Overcast  
Wind Chill:   Ceiling: 3400
Heat Index:   Visibility: 10mi
Dew Point:   Wind: 6mph
Humidity: 83%   Direction: 330°NNW
Pressure: 29.72"   Gusts: NA
Location:  46.87°N, 89.31°W
Report Text: KCMX 200453Z AUTO 33005KT 10SM OVC034 08/05 A2972 RMK AO2 SLP072 T00780050 400891022
Loading
Personal Weather Stations






























Interactive Weather Map
Tropical Storm Tracking
New forecast layout! Learn more

10-Day Weather Forecast

Advertisements
Track Severe Weather on mobile